Time;durP1;ratioP1;P1;durP2;ratioP2;P2;SDS_P1;SDS_P2;PMS_P1;PMS_P2;Temp;Humidity;BMP_temperature;BMP_pressure;BME280_temperature;BME280_humidity;BME280_pressure;Samples;Min_cycle;Max_cycle;Signal;HPM_P1;HPM_P2
2024/01/16 00:02:12;;;;;;;23.47;11.63;;;;;;;-2.27;70.11;99190.09;4957864;28;20731;-81
2024/01/16 00:04:37;;;;;;;20.57;11.50;;;;;;;-2.23;69.94;99190.88;4956846;28;20793;-83
2024/01/16 00:07:03;;;;;;;18.00;9.20;;;;;;;-2.28;69.84;99179.81;4958368;28;21046;-81
2024/01/16 00:09:29;;;;;;;28.17;16.63;;;;;;;-2.33;70.17;99173.91;4957158;28;20497;-81
2024/01/16 00:11:54;;;;;;;22.03;12.30;;;;;;;-2.40;70.25;99185.16;4958525;28;20486;-81
2024/01/16 00:14:20;;;;;;;22.13;13.70;;;;;;;-2.50;70.36;99184.50;4958841;28;20228;-81
2024/01/16 00:16:46;;;;;;;22.10;12.30;;;;;;;-2.53;70.42;99187.13;4957738;28;20606;-81
2024/01/16 00:19:12;;;;;;;25.52;12.85;;;;;;;-2.54;70.35;99181.13;4958767;28;20231;-81
2024/01/16 00:21:41;;;;;;;17.07;9.93;;;;;;;-2.53;70.25;99175.09;4957346;28;20335;-81
2024/01/16 00:24:07;;;;;;;22.45;11.20;;;;;;;-2.50;70.40;99172.47;4958692;28;20228;-81
2024/01/16 00:26:32;;;;;;;10.57;7.83;;;;;;;-2.47;70.22;99175.00;4959431;28;20708;-81
2024/01/16 00:28:58;;;;;;;20.93;12.27;;;;;;;-2.46;70.17;99180.97;4958602;28;20475;-83
2024/01/16 00:31:23;;;;;;;14.93;10.10;;;;;;;-2.48;70.01;99187.91;4957795;28;20227;-81
2024/01/16 00:33:49;;;;;;;12.93;8.30;;;;;;;-2.62;69.90;99180.41;4958573;28;20692;-81
2024/01/16 00:36:14;;;;;;;12.67;8.17;;;;;;;-2.76;69.68;99188.34;4956643;28;20224;-80
2024/01/16 00:38:40;;;;;;;19.30;12.40;;;;;;;-2.85;70.39;99188.50;4954775;28;20494;-81
2024/01/16 00:41:06;;;;;;;20.97;11.40;;;;;;;-2.93;70.79;99187.78;4959465;28;20735;-80
2024/01/16 00:43:32;;;;;;;17.95;10.93;;;;;;;-2.94;70.65;99192.06;4961099;28;20829;-84
2024/01/16 00:45:58;;;;;;;14.38;8.07;;;;;;;-2.96;70.89;99191.25;4960685;28;20241;-84
2024/01/16 00:48:24;;;;;;;18.40;8.43;;;;;;;-3.01;70.82;99190.47;4959589;28;20224;-84
2024/01/16 00:50:49;;;;;;;13.37;9.67;;;;;;;-3.00;70.95;99186.16;4960248;28;20891;-84
2024/01/16 00:53:17;;;;;;;15.33;8.00;;;;;;;-3.01;70.72;99187.88;4958661;28;20224;-82
2024/01/16 00:55:43;;;;;;;10.30;5.93;;;;;;;-3.00;70.82;99197.28;4957380;28;20229;-83
2024/01/16 00:58:08;;;;;;;16.43;9.00;;;;;;;-3.04;70.64;99184.53;4961835;28;20223;-83
2024/01/16 01:00:35;;;;;;;12.90;8.67;;;;;;;-3.07;70.85;99194.84;4960712;28;20231;-83
2024/01/16 01:03:00;;;;;;;19.35;8.15;;;;;;;-3.06;70.71;99183.69;4957889;28;20758;-83
2024/01/16 01:05:28;;;;;;;10.50;7.95;;;;;;;-3.04;70.83;99195.66;4958296;28;20231;-84
2024/01/16 01:07:57;;;;;;;16.85;9.60;;;;;;;-3.05;70.60;99191.38;4960835;28;20794;-83
2024/01/16 01:10:22;;;;;;;15.05;8.38;;;;;;;-3.07;70.62;99187.16;4975202;28;20220;-84
2024/01/16 01:12:49;;;;;;;9.70;6.97;;;;;;;-3.07;70.58;99195.69;4960327;28;20222;-82
2024/01/16 01:15:15;;;;;;;18.25;9.23;;;;;;;-3.11;70.56;99191.47;4958353;28;20224;-83
2024/01/16 01:17:40;;;;;;;13.57;8.47;;;;;;;-3.12;70.61;99189.78;4960069;28;20220;-81
2024/01/16 01:20:08;;;;;;;16.40;8.80;;;;;;;-3.11;70.80;99194.03;4958568;28;20321;-83
2024/01/16 01:22:37;;;;;;;15.02;9.05;;;;;;;-3.12;70.68;99195.75;4960382;28;20479;-82
2024/01/16 01:25:02;;;;;;;8.07;6.13;;;;;;;-3.10;70.71;99190.59;4960415;28;20227;-84
2024/01/16 01:27:28;;;;;;;20.33;7.83;;;;;;;-3.12;70.55;99192.34;4961935;28;20231;-83
2024/01/16 01:29:53;;;;;;;15.13;6.50;;;;;;;-3.14;70.53;99196.66;4961582;28;20226;-82
2024/01/16 01:32:19;;;;;;;12.47;6.77;;;;;;;-3.13;70.52;99198.38;4961696;28;20224;-83
2024/01/16 01:34:44;;;;;;;14.60;7.00;;;;;;;-3.14;70.28;99196.66;4958300;28;20700;-83
2024/01/16 01:37:09;;;;;;;8.03;7.27;;;;;;;-3.20;70.42;99191.63;4962934;28;20228;-83
2024/01/16 01:39:35;;;;;;;11.63;7.67;;;;;;;-3.26;70.55;99186.56;4963931;28;20212;-84
2024/01/16 01:42:00;;;;;;;15.47;6.47;;;;;;;-3.29;70.73;99194.28;4963476;28;20837;-83
2024/01/16 01:44:29;;;;;;;13.77;6.23;;;;;;;-3.33;70.99;99194.34;4962876;28;20224;-83
2024/01/16 01:46:56;;;;;;;13.23;6.65;;;;;;;-3.33;70.80;99202.03;4962331;28;20294;-84
2024/01/16 01:49:23;;;;;;;10.02;7.22;;;;;;;-3.34;70.53;99200.34;4958160;28;20783;-83
2024/01/16 01:51:49;;;;;;;16.23;8.43;;;;;;;-3.37;70.75;99205.53;4959478;28;20768;-83
2024/01/16 01:54:16;;;;;;;16.15;6.60;;;;;;;-3.37;70.65;99208.09;4959136;28;20250;-83
2024/01/16 01:56:44;;;;;;;9.57;6.97;;;;;;;-3.37;70.60;99207.28;4962264;28;20959;-83
2024/01/16 01:59:11;;;;;;;13.82;7.68;;;;;;;-3.37;70.90;99202.13;4961516;28;20239;-84
2024/01/16 02:01:36;;;;;;;10.00;6.90;;;;;;;-3.42;70.36;99198.78;4960771;28;20224;-84
2024/01/16 02:04:03;;;;;;;10.80;7.40;;;;;;;-3.48;70.42;99193.69;4964531;28;20247;-83
2024/01/16 02:06:28;;;;;;;12.80;7.25;;;;;;;-3.51;70.67;99194.63;4956736;28;20227;-83
2024/01/16 02:08:53;;;;;;;18.30;11.10;;;;;;;-3.50;70.75;99198.03;4959926;28;20593;-83
2024/01/16 02:11:19;;;;;;;10.37;7.17;;;;;;;-3.49;70.56;99190.28;4962060;28;20216;-83
2024/01/16 02:13:45;;;;;;;15.40;6.80;;;;;;;-3.49;70.96;99189.44;4959733;28;20693;-84
2024/01/16 02:16:21;;;;;;;16.38;9.25;;;;;;;-3.53;70.65;99193.78;4961110;28;20232;-81
2024/01/16 02:18:47;;;;;;;15.07;7.22;;;;;;;-3.61;70.54;99198.16;4962631;28;20215;-82
2024/01/16 02:21:16;;;;;;;17.60;7.60;;;;;;;-3.65;70.60;99196.50;4961817;28;20228;-83
2024/01/16 02:23:42;;;;;;;13.35;6.78;;;;;;;-3.66;70.76;99197.38;4963845;28;20728;-84
2024/01/16 02:26:07;;;;;;;13.60;7.83;;;;;;;-3.65;70.96;99202.47;4959769;28;20244;-83
2024/01/16 02:28:33;;;;;;;6.67;5.90;;;;;;;-3.63;70.61;99192.19;4965104;28;20220;-83
2024/01/16 02:30:58;;;;;;;6.73;4.47;;;;;;;-3.67;70.32;99196.53;4964139;28;20984;-83
2024/01/16 02:33:24;;;;;;;12.07;4.33;;;;;;;-3.70;70.44;99188.00;4964016;28;20227;-82
2024/01/16 02:35:49;;;;;;;12.77;8.07;;;;;;;-3.69;70.53;99187.16;4958508;28;20224;-82
2024/01/16 02:38:14;;;;;;;9.55;6.57;;;;;;;-3.67;70.36;99195.66;4966555;28;20512;-87
2024/01/16 02:40:40;;;;;;;8.43;6.33;;;;;;;-3.73;70.09;99181.19;4968148;28;20223;-87
2024/01/16 02:43:06;;;;;;;7.00;6.20;;;;;;;-3.81;70.23;99183.88;4968578;28;20231;-85
2024/01/16 02:45:32;;;;;;;9.83;8.03;;;;;;;-3.88;70.53;99182.25;4973212;28;20224;-86
2024/01/16 02:47:58;;;;;;;12.88;6.10;;;;;;;-3.96;70.53;99178.91;4969322;28;20476;-86
2024/01/16 02:50:23;;;;;;;7.83;5.10;;;;;;;-4.03;70.28;99182.41;4967424;28;20851;-84
2024/01/16 02:52:48;;;;;;;10.00;5.07;;;;;;;-4.03;70.54;99197.81;4967178;28;20475;-84
2024/01/16 02:55:14;;;;;;;14.00;7.20;;;;;;;-4.06;70.63;99191.00;4967317;28;20304;-85
2024/01/16 02:57:40;;;;;;;9.00;5.63;;;;;;;-4.12;70.65;99193.63;4966698;28;20743;-87
2024/01/16 03:00:07;;;;;;;9.83;6.57;;;;;;;-4.17;70.75;99186.84;4967394;28;20222;-85
2024/01/16 03:02:33;;;;;;;6.07;4.15;;;;;;;-4.20;70.54;99192.03;4967750;28;20216;-86
2024/01/16 03:04:58;;;;;;;12.47;6.80;;;;;;;-4.23;70.59;99186.06;4967154;28;20223;-88
2024/01/16 03:07:24;;;;;;;9.30;5.33;;;;;;;-4.22;70.68;99192.88;4966587;28;20228;-84
2024/01/16 03:09:50;;;;;;;5.57;4.73;;;;;;;-4.19;70.92;99192.00;4967022;28;20226;-86
2024/01/16 03:12:15;;;;;;;7.00;3.83;;;;;;;-4.16;70.37;99185.97;4967379;28;20263;-85
2024/01/16 03:14:40;;;;;;;9.67;5.77;;;;;;;-4.18;70.45;99191.16;4967033;28;20299;-86
2024/01/16 03:17:06;;;;;;;5.13;4.73;;;;;;;-4.25;70.45;99192.91;4969193;28;20251;-88
2024/01/16 03:19:32;;;;;;;8.25;4.20;;;;;;;-4.29;70.61;99195.53;4966183;28;20227;-87
2024/01/16 03:21:57;;;;;;;10.03;4.53;;;;;;;-4.31;71.00;99185.28;4965842;28;20211;-84
2024/01/16 03:24:23;;;;;;;5.93;3.80;;;;;;;-4.34;70.56;99179.34;4964703;28;20421;-84
2024/01/16 03:26:48;;;;;;;6.40;3.33;;;;;;;-4.39;70.23;99189.66;4965719;28;20240;-85
2024/01/16 03:29:13;;;;;;;15.97;5.43;;;;;;;-4.41;70.62;99188.81;4968025;28;20222;-86
2024/01/16 03:31:39;;;;;;;6.20;3.40;;;;;;;-4.43;70.44;99187.97;4967027;28;20877;-85
2024/01/16 03:34:04;;;;;;;11.80;4.53;;;;;;;-4.42;70.50;99188.84;4968683;28;20224;-86
2024/01/16 03:36:30;;;;;;;11.43;4.87;;;;;;;-4.40;70.90;99198.22;4967479;28;20231;-86
2024/01/16 03:38:55;;;;;;;12.33;7.33;;;;;;;-4.31;70.67;99197.25;4967706;28;20903;-82
2024/01/16 03:41:21;;;;;;;9.20;4.93;;;;;;;-4.28;70.78;99194.66;4962530;28;20859;-83
2024/01/16 03:43:47;;;;;;;7.13;4.50;;;;;;;-4.32;70.34;99190.41;4964173;28;20235;-84
2024/01/16 03:46:13;;;;;;;8.33;5.50;;;;;;;-4.39;70.97;99188.81;4968148;28;20251;-86
2024/01/16 03:48:39;;;;;;;5.60;4.40;;;;;;;-4.42;71.00;99197.38;4967764;28;20216;-87
2024/01/16 03:51:05;;;;;;;8.20;4.80;;;;;;;-4.44;70.46;99193.97;4968241;28;20232;-85
2024/01/16 03:53:30;;;;;;;7.93;5.90;;;;;;;-4.45;70.99;99184.59;4968728;28;20287;-87
2024/01/16 03:55:59;;;;;;;6.77;4.20;;;;;;;-4.44;70.40;99181.16;4968750;28;20236;-85
2024/01/16 03:58:25;;;;;;;9.05;4.97;;;;;;;-4.41;70.87;99180.28;4972762;28;20201;-83
2024/01/16 04:00:53;;;;;;;12.18;5.18;;;;;;;-4.42;70.59;99179.44;4973218;28;20228;-84
2024/01/16 04:03:22;;;;;;;9.45;4.90;;;;;;;-4.42;70.58;99174.28;4971392;28;20240;-83
2024/01/16 04:05:48;;;;;;;8.60;5.50;;;;;;;-4.43;70.46;99176.88;4970200;28;20220;-87
2024/01/16 04:08:13;;;;;;;11.17;5.67;;;;;;;-4.42;70.49;99182.00;4966602;28;21056;-88
2024/01/16 04:10:38;;;;;;;6.83;5.23;;;;;;;-4.43;70.35;99170.00;4966039;28;20227;-86
2024/01/16 04:13:04;;;;;;;8.43;5.63;;;;;;;-4.48;70.38;99171.81;4967414;28;20613;-85
2024/01/16 04:15:30;;;;;;;9.40;5.83;;;;;;;-4.51;70.98;99176.94;4964723;28;20299;-88
2024/01/16 04:17:55;;;;;;;9.07;5.87;;;;;;;-4.50;70.39;99165.84;4966941;28;20224;-85
2024/01/16 04:20:21;;;;;;;5.50;3.97;;;;;;;-4.52;70.32;99177.81;4967173;28;20220;-87
2024/01/16 04:22:48;;;;;;;7.65;4.55;;;;;;;-4.54;70.78;99175.25;4966612;28;20239;-86
2024/01/16 04:25:14;;;;;;;13.43;4.93;;;;;;;-4.53;70.50;99168.44;4966897;28;20903;-86
2024/01/16 04:27:40;;;;;;;6.40;3.77;;;;;;;-4.53;70.33;99160.75;4965625;28;20220;-86
2024/01/16 04:30:06;;;;;;;6.97;5.00;;;;;;;-4.57;70.34;99170.16;4964740;28;20532;-86
2024/01/16 04:32:31;;;;;;;11.95;5.32;;;;;;;-4.57;70.29;99162.47;4957504;28;20993;-89
2024/01/16 04:34:57;;;;;;;10.93;4.90;;;;;;;-4.53;70.43;99161.59;4958275;28;20236;-87
2024/01/16 04:37:22;;;;;;;12.07;7.47;;;;;;;-4.47;70.63;99161.53;4960389;28;20496;-86
2024/01/16 04:39:47;;;;;;;7.63;5.10;;;;;;;-4.42;70.63;99158.06;4958474;28;20227;-84
2024/01/16 04:42:13;;;;;;;7.97;5.60;;;;;;;-4.44;70.66;99152.94;4958206;28;20231;-88
2024/01/16 04:44:38;;;;;;;6.63;5.87;;;;;;;-4.46;70.67;99146.97;4959944;28;20469;-87
2024/01/16 04:47:04;;;;;;;5.07;4.60;;;;;;;-4.48;70.61;99151.31;4960325;28;20220;-87
2024/01/16 04:49:29;;;;;;;6.37;4.20;;;;;;;-4.49;70.58;99145.31;4964055;28;20215;-87
2024/01/16 04:51:55;;;;;;;9.47;4.83;;;;;;;-4.48;70.43;99135.91;4964617;28;20220;-85
2024/01/16 04:54:21;;;;;;;5.80;4.57;;;;;;;-4.49;70.10;99131.63;4965070;28;20235;-84
2024/01/16 04:56:46;;;;;;;8.50;4.97;;;;;;;-4.52;70.16;99126.53;4964913;28;20524;-86
2024/01/16 04:59:11;;;;;;;8.20;5.77;;;;;;;-4.53;70.04;99122.31;4966959;28;20216;-85
2024/01/16 05:01:37;;;;;;;5.13;3.53;;;;;;;-4.54;70.44;99118.88;4967084;28;20220;-87
2024/01/16 05:04:03;;;;;;;6.10;4.50;;;;;;;-4.58;70.02;99124.91;4968825;28;20232;-86
2024/01/16 05:06:29;;;;;;;7.15;4.82;;;;;;;-4.61;69.70;99113.84;4964488;28;20220;-86
2024/01/16 05:08:55;;;;;;;11.73;7.05;;;;;;;-4.62;70.21;99119.81;4961758;28;20470;-86
2024/01/16 05:11:21;;;;;;;7.47;5.90;;;;;;;-4.61;70.35;99117.25;4963059;28;20457;-83
2024/01/16 05:13:46;;;;;;;13.37;5.80;;;;;;;-4.64;70.30;99114.72;4960692;28;20248;-86
2024/01/16 05:16:13;;;;;;;7.70;4.57;;;;;;;-4.64;70.47;99117.28;4963145;28;20239;-85
2024/01/16 05:18:41;;;;;;;7.40;5.05;;;;;;;-4.64;70.45;99103.59;4961822;28;20231;-84
2024/01/16 05:21:07;;;;;;;17.00;7.20;;;;;;;-4.63;70.47;99105.31;4961906;28;20260;-84
2024/01/16 05:23:32;;;;;;;6.10;5.53;;;;;;;-4.62;70.17;99099.31;4961840;28;20254;-84
2024/01/16 05:25:58;;;;;;;8.73;6.17;;;;;;;-4.61;70.56;99101.03;4960026;28;20248;-87
2024/01/16 05:28:23;;;;;;;4.87;2.80;;;;;;;-4.60;70.16;99092.47;4961919;28;20224;-85
2024/01/16 05:30:49;;;;;;;4.50;4.10;;;;;;;-4.59;70.24;99086.47;4965365;28;20231;-86
2024/01/16 05:33:14;;;;;;;14.10;5.40;;;;;;;-4.57;69.89;99095.00;4966656;28;20337;-86
2024/01/16 05:35:39;;;;;;;8.83;4.13;;;;;;;-4.57;69.89;99097.56;4967474;28;20602;-87
2024/01/16 05:38:06;;;;;;;8.60;3.67;;;;;;;-4.60;69.62;99098.44;4967308;28;20226;-85
2024/01/16 05:40:32;;;;;;;3.75;3.45;;;;;;;-4.65;69.41;99091.66;4967736;28;20758;-86
2024/01/16 05:42:57;;;;;;;10.47;6.00;;;;;;;-4.66;69.89;99088.25;4968550;28;20258;-83
2024/01/16 05:45:22;;;;;;;18.50;9.27;;;;;;;-4.65;69.64;99082.25;4967134;28;20312;-85
2024/01/16 05:47:48;;;;;;;11.77;8.97;;;;;;;-4.63;69.68;99077.97;4964060;28;20609;-86
2024/01/16 05:50:16;;;;;;;11.13;6.43;;;;;;;-4.60;69.92;99084.78;4967742;28;20224;-84
2024/01/16 05:52:41;;;;;;;8.57;4.28;;;;;;;-4.59;69.87;99086.47;4970863;28;20282;-83
2024/01/16 05:55:08;;;;;;;11.68;6.40;;;;;;;-4.60;69.71;99079.66;4966552;28;20255;-85
2024/01/16 05:57:33;;;;;;;5.00;3.27;;;;;;;-4.61;69.90;99083.09;4964547;28;20224;-83
2024/01/16 06:00:08;;;;;;;10.20;4.87;;;;;;;-4.62;69.80;99086.50;4972601;28;20280;-83
2024/01/16 06:02:34;;;;;;;4.18;3.78;;;;;;;-4.63;69.64;99087.38;4969847;28;20217;-83
2024/01/16 06:05:02;;;;;;;8.10;5.03;;;;;;;-4.65;69.59;99087.38;4968544;28;20244;-83
2024/01/16 06:07:28;;;;;;;6.88;5.80;;;;;;;-4.65;69.75;99083.97;4964853;28;20577;-84
2024/01/16 06:09:53;;;;;;;6.80;4.13;;;;;;;-4.63;69.77;99092.50;4963180;28;20243;-84
2024/01/16 06:12:18;;;;;;;8.57;4.50;;;;;;;-4.61;69.53;99078.81;4960132;28;20304;-87
2024/01/16 06:14:44;;;;;;;7.00;5.33;;;;;;;-4.58;69.93;99085.63;4957081;28;20247;-84
2024/01/16 06:17:09;;;;;;;9.03;4.80;;;;;;;-4.55;69.69;99090.72;4958338;28;20235;-86
2024/01/16 06:19:34;;;;;;;8.63;5.20;;;;;;;-4.54;69.70;99082.97;4957694;28;20205;-86
2024/01/16 06:22:00;;;;;;;7.30;4.47;;;;;;;-4.50;69.35;99094.06;4958857;28;20250;-86
2024/01/16 06:24:26;;;;;;;9.90;5.87;;;;;;;-4.49;69.49;99090.63;4960411;28;20807;-84
2024/01/16 06:26:51;;;;;;;4.05;3.65;;;;;;;-4.49;69.44;99088.91;4958228;28;20274;-85
2024/01/16 06:29:17;;;;;;;7.40;4.87;;;;;;;-4.48;69.15;99088.06;4959808;28;20287;-85
2024/01/16 06:31:42;;;;;;;4.60;4.30;;;;;;;-4.50;69.28;99088.94;4960259;28;20275;-83
2024/01/16 06:34:08;;;;;;;6.90;5.13;;;;;;;-4.56;69.72;99083.91;4960048;28;20242;-85
2024/01/16 06:36:34;;;;;;;7.38;5.40;;;;;;;-4.61;69.40;99081.38;4960218;28;20228;-83
2024/01/16 06:38:59;;;;;;;8.70;6.50;;;;;;;-4.61;69.59;99076.25;4959015;28;20565;-84
2024/01/16 06:41:24;;;;;;;10.17;4.90;;;;;;;-4.63;69.84;99079.69;4958526;28;20627;-85
2024/01/16 06:43:50;;;;;;;9.40;7.00;;;;;;;-4.71;69.57;99070.34;5357998;22;20235;-79
2024/01/16 06:46:15;;;;;;;4.30;3.90;;;;;;;-4.77;69.70;99072.16;4945491;28;20254;-79
2024/01/16 06:48:41;;;;;;;5.37;4.70;;;;;;;-4.78;69.87;99066.19;4960787;28;20773;-79
2024/01/16 06:51:07;;;;;;;5.63;4.00;;;;;;;-4.79;70.12;99071.31;4969890;28;20281;-79
2024/01/16 06:53:33;;;;;;;8.02;5.35;;;;;;;-4.81;69.87;99067.91;4969458;28;20231;-79
2024/01/16 06:55:59;;;;;;;12.70;4.30;;;;;;;-4.83;69.66;99073.06;4971163;28;20238;-79
2024/01/16 06:58:24;;;;;;;5.10;4.70;;;;;;;-4.83;70.13;99069.63;4973648;28;20219;-79
2024/01/16 07:00:49;;;;;;;7.93;4.83;;;;;;;-4.83;70.07;99062.81;4970310;28;20532;-79
2024/01/16 07:03:15;;;;;;;7.90;4.10;;;;;;;-4.82;69.60;99061.94;4969238;28;20242;-79
2024/01/16 07:05:40;;;;;;;12.37;5.33;;;;;;;-4.79;70.00;99066.19;4961734;28;20207;-79
2024/01/16 07:08:07;;;;;;;12.07;6.57;;;;;;;-4.79;69.96;99059.34;4971832;28;20957;-79
2024/01/16 07:10:32;;;;;;;12.32;7.45;;;;;;;-4.77;69.64;99067.03;4969473;28;20227;-79
2024/01/16 07:12:57;;;;;;;22.97;11.63;;;;;;;-4.76;69.86;99061.03;4971930;28;20222;-79
2024/01/16 07:15:23;;;;;;;17.60;8.87;;;;;;;-4.75;69.75;99072.97;4971014;28;20235;-79
2024/01/16 07:17:48;;;;;;;12.00;7.87;;;;;;;-4.76;69.54;99069.56;4971670;28;20696;-79
2024/01/16 07:20:14;;;;;;;11.47;5.70;;;;;;;-4.78;69.37;99062.75;4970610;28;20227;-79
2024/01/16 07:22:39;;;;;;;8.53;5.80;;;;;;;-4.82;69.62;99066.22;4969837;28;20226;-79
2024/01/16 07:25:06;;;;;;;8.60;5.93;;;;;;;-4.82;69.34;99072.19;4968861;28;20631;-80
2024/01/16 07:27:31;;;;;;;8.02;6.22;;;;;;;-4.82;69.66;99077.31;4972485;28;20227;-79
2024/01/16 07:29:57;;;;;;;9.00;6.73;;;;;;;-4.79;69.41;99077.28;4970891;28;20605;-79
2024/01/16 07:32:22;;;;;;;14.33;7.13;;;;;;;-4.77;69.22;99085.81;4970816;28;20900;-79
2024/01/16 07:34:48;;;;;;;9.97;8.17;;;;;;;-4.74;69.65;99080.66;4969634;28;20234;-79
2024/01/16 07:37:14;;;;;;;13.30;8.30;;;;;;;-4.73;69.43;99082.31;4970720;28;20306;-79
2024/01/16 07:39:39;;;;;;;16.13;8.50;;;;;;;-4.76;69.11;99074.69;4971128;28;20219;-79
2024/01/16 07:42:04;;;;;;;10.50;6.90;;;;;;;-4.81;69.00;99084.13;4971093;28;20626;-80
2024/01/16 07:44:30;;;;;;;14.30;6.50;;;;;;;-4.85;69.09;99091.88;4971091;28;20319;-79
2024/01/16 07:46:55;;;;;;;14.27;7.47;;;;;;;-4.87;69.22;99085.91;4971185;28;20223;-79
2024/01/16 07:49:21;;;;;;;14.40;8.73;;;;;;;-4.86;69.58;99087.59;4971311;28;20281;-79
2024/01/16 07:51:46;;;;;;;10.60;7.63;;;;;;;-4.79;69.39;99095.22;4972881;28;20258;-80
2024/01/16 07:54:13;;;;;;;9.60;7.60;;;;;;;-4.72;69.76;99089.16;4971814;28;20242;-80
2024/01/16 07:56:38;;;;;;;12.07;6.30;;;;;;;-4.63;69.35;99089.94;4972495;28;20342;-80
2024/01/16 07:59:04;;;;;;;14.50;6.63;;;;;;;-4.58;69.21;99090.75;4971079;28;20342;-80
2024/01/16 08:01:29;;;;;;;15.03;8.07;;;;;;;-4.53;69.16;99091.53;4972025;28;20227;-80
2024/01/16 08:03:55;;;;;;;9.63;8.20;;;;;;;-4.51;69.32;99085.53;4970368;28;20242;-80
2024/01/16 08:06:22;;;;;;;13.05;5.53;;;;;;;-4.46;69.23;99088.03;4971365;28;20215;-79
2024/01/16 08:08:48;;;;;;;16.50;11.30;;;;;;;-4.42;69.03;99087.13;4970971;28;20504;-80
2024/01/16 08:11:14;;;;;;;10.07;7.18;;;;;;;-4.37;69.33;99087.94;4972599;28;20219;-80
2024/01/16 08:13:40;;;;;;;14.05;7.90;;;;;;;-4.34;69.54;99098.16;4971592;28;20239;-80
2024/01/16 08:16:06;;;;;;;8.80;6.97;;;;;;;-4.29;69.65;99087.84;4969931;28;20579;-80
2024/01/16 08:18:31;;;;;;;7.37;4.97;;;;;;;-4.23;69.50;99082.66;4972624;28;20603;-79
2024/01/16 08:20:57;;;;;;;6.70;6.10;;;;;;;-4.17;69.46;99092.81;4972319;28;20525;-79
2024/01/16 08:23:22;;;;;;;8.60;7.50;;;;;;;-4.11;69.13;99079.91;4970451;28;20230;-79
2024/01/16 08:25:48;;;;;;;17.10;7.80;;;;;;;-4.04;69.02;99084.09;4972289;28;20938;-80
2024/01/16 08:28:14;;;;;;;13.03;8.70;;;;;;;-3.98;69.11;99077.19;4972684;28;20227;-79
2024/01/16 08:30:40;;;;;;;17.98;8.68;;;;;;;-3.93;68.90;99083.13;4970616;28;20482;-80
2024/01/16 08:33:07;;;;;;;8.80;6.43;;;;;;;-3.88;68.91;99081.34;4964580;28;20227;-79
2024/01/16 08:35:33;;;;;;;5.63;4.97;;;;;;;-3.83;69.06;99072.72;4964586;28;20497;-80
2024/01/16 08:37:58;;;;;;;11.93;7.82;;;;;;;-3.79;69.07;99074.34;4963438;28;21003;-80
2024/01/16 08:40:25;;;;;;;8.33;7.13;;;;;;;-3.71;69.00;99074.22;4962485;28;20323;-80
2024/01/16 08:42:54;;;;;;;5.43;3.88;;;;;;;-3.63;68.75;99066.44;4967256;28;21060;-80
2024/01/16 08:45:23;;;;;;;4.60;2.80;;;;;;;-3.54;68.60;99073.13;4968283;28;20227;-80
2024/01/16 08:47:49;;;;;;;3.50;3.05;;;;;;;-3.48;68.56;99066.19;4973378;28;20246;-80
2024/01/16 08:50:15;;;;;;;5.25;4.50;;;;;;;-3.38;68.24;99064.31;4977189;28;20228;-80
2024/01/16 08:52:41;;;;;;;5.53;2.80;;;;;;;-3.26;68.32;99060.72;4978539;28;20239;-80
2024/01/16 08:55:08;;;;;;;8.40;4.23;;;;;;;-3.08;68.07;99062.97;4970601;28;20322;-79
2024/01/16 08:57:34;;;;;;;10.38;5.88;;;;;;;-2.24;67.49;99052.84;4964560;28;20514;-79
2024/01/16 09:00:00;;;;;;;7.17;5.23;;;;;;;-0.86;65.87;99044.44;4969588;28;20314;-80
2024/01/16 09:02:28;;;;;;;5.27;3.60;;;;;;;0.58;62.66;99052.28;4970329;28;20695;-80
2024/01/16 09:04:55;;;;;;;9.85;4.88;;;;;;;1.87;60.41;99048.69;4992464;28;20314;-80
2024/01/16 09:07:20;;;;;;;7.43;3.55;;;;;;;3.01;57.67;99036.44;4981323;28;20219;-80
2024/01/16 09:09:46;;;;;;;4.50;3.50;;;;;;;3.98;55.23;99033.88;4986160;28;20230;-80
2024/01/16 09:12:12;;;;;;;5.30;3.03;;;;;;;4.87;53.68;99024.44;4986508;28;20235;-80
2024/01/16 09:14:37;;;;;;;4.87;3.27;;;;;;;5.59;51.87;99029.47;4975586;28;20951;-80
2024/01/16 09:17:03;;;;;;;6.70;4.00;;;;;;;6.11;50.42;99011.09;4973305;28;20247;-80
2024/01/16 09:19:29;;;;;;;5.00;4.50;;;;;;;6.83;49.32;99030.50;4973553;28;20746;-80
2024/01/16 09:21:55;;;;;;;6.07;3.75;;;;;;;7.44;nan;99021.69;4975436;28;20732;-80
2024/01/16 09:24:20;;;;;;;3.42;3.13;;;;;;;7.97;nan;99016.75;4974269;28;20204;-80
2024/01/16 09:26:46;;;;;;;4.43;3.30;;;;;;;8.58;nan;99023.31;4973352;28;20223;-80
2024/01/16 09:29:12;;;;;;;4.37;4.00;;;;;;;9.02;nan;99018.75;4975195;28;20318;-80
2024/01/16 09:31:38;;;;;;;7.40;4.83;;;;;;;8.73;nan;99015.44;4974401;28;20196;-80
2024/01/16 09:34:04;;;;;;;4.22;3.83;;;;;;;7.93;nan;99010.00;4974860;28;20242;-81
2024/01/16 09:36:29;;;;;;;6.80;4.43;;;;;;;7.15;nan;99005.13;4973009;28;20203;-80
2024/01/16 09:38:55;;;;;;;6.78;5.25;;;;;;;6.55;nan;99003.38;4961165;28;20692;-80
2024/01/16 09:41:20;;;;;;;9.77;5.23;;;;;;;6.04;nan;99007.97;4975002;28;20208;-80
2024/01/16 09:43:47;;;;;;;6.57;5.87;;;;;;;5.66;nan;99012.63;4972105;28;20207;-79
2024/01/16 09:46:15;;;;;;;12.27;5.88;;;;;;;5.06;nan;99011.34;4967926;28;20212;-79
2024/01/16 09:48:44;;;;;;;8.68;5.60;;;;;;;4.45;nan;99014.38;4969014;28;20904;-80
2024/01/16 09:51:12;;;;;;;10.25;5.03;;;;;;;3.87;nan;99015.34;4969850;28;20209;-79
2024/01/16 09:53:37;;;;;;;6.80;4.60;;;;;;;3.46;nan;99010.25;4967053;28;20388;-78
2024/01/16 09:56:10;;;;;;;6.93;4.60;;;;;;;3.17;nan;99013.28;4968550;28;20208;-79
2024/01/16 09:58:37;;;;;;;6.88;3.75;;;;;;;2.93;nan;99013.41;4968666;28;20946;-79
2024/01/16 10:01:02;;;;;;;6.50;4.70;;;;;;;2.63;nan;99020.72;4969525;28;20472;-79
2024/01/16 10:03:30;;;;;;;7.23;4.30;;;;;;;2.38;nan;99023.44;4966710;28;20552;-78
2024/01/16 10:05:56;;;;;;;6.60;4.15;;;;;;;2.58;nan;99013.13;4957981;28;20188;-79
2024/01/16 10:08:22;;;;;;;6.83;4.97;;;;;;;3.23;nan;99005.22;4966596;28;20462;-78
2024/01/16 10:10:47;;;;;;;5.70;4.00;;;;;;;3.82;nan;99001.72;4965566;28;20462;-79
2024/01/16 10:13:14;;;;;;;11.73;5.07;;;;;;;4.03;nan;98994.69;4968385;28;20223;-79
2024/01/16 10:15:40;;;;;;;4.35;3.95;;;;;;;4.01;nan;98991.31;4973878;28;20295;-79
2024/01/16 10:18:06;;;;;;;5.07;3.10;;;;;;;3.84;nan;98991.28;4967443;28;20298;-79
2024/01/16 10:20:33;;;;;;;7.75;4.10;;;;;;;3.46;nan;98992.09;4969031;28;20227;-80
2024/01/16 10:22:59;;;;;;;5.82;3.67;;;;;;;2.99;nan;98991.56;4969289;28;20772;-79
2024/01/16 10:25:24;;;;;;;4.30;3.10;;;;;;;2.64;nan;98991.28;4965874;28;20358;-79
2024/01/16 10:28:03;;;;;;;7.17;3.97;;;;;;;2.28;nan;98999.63;4970905;28;20196;-79
2024/01/16 10:30:29;;;;;;;5.90;3.35;;;;;;;2.01;nan;99011.91;4961401;28;20610;-79
2024/01/16 10:32:54;;;;;;;7.70;5.10;;;;;;;1.82;nan;99001.41;4965610;28;20671;-79
2024/01/16 10:35:20;;;;;;;5.00;3.97;;;;;;;1.71;nan;99003.56;4967187;28;20608;-78
2024/01/16 10:37:48;;;;;;;6.07;3.90;;;;;;;1.64;nan;99004.69;4967766;28;20585;-79
2024/01/16 10:40:21;;;;;;;8.40;3.40;;;;;;;1.67;nan;99007.16;4969122;28;20214;-79
2024/01/16 10:42:56;;;;;;;4.13;2.97;;;;;;;1.65;nan;98996.03;4968428;28;20192;-80
2024/01/16 10:45:22;;;;;;;6.68;3.40;;;;;;;1.66;nan;98995.97;4968969;28;20254;-80
2024/01/16 10:47:48;;;;;;;6.90;3.27;;;;;;;1.66;nan;99001.13;4965786;28;20216;-78
2024/01/16 10:50:14;;;;;;;5.57;3.58;;;;;;;1.65;nan;98996.88;4967001;28;20199;-79
2024/01/16 10:52:48;;;;;;;5.70;4.30;;;;;;;1.68;nan;98998.50;4965670;28;20195;-78
2024/01/16 10:55:21;;;;;;;8.38;4.85;;;;;;;1.54;nan;98999.84;4968061;28;20217;-80
2024/01/16 10:57:48;;;;;;;7.55;5.03;;;;;;;1.41;nan;98996.03;4966325;28;20203;-79
2024/01/16 11:00:17;;;;;;;5.50;4.82;;;;;;;1.32;nan;98999.78;4968331;28;20199;-80
2024/01/16 11:02:49;;;;;;;8.52;4.80;;;;;;;1.21;nan;98993.28;4969754;28;21154;-79
2024/01/16 11:05:17;;;;;;;6.60;4.97;;;;;;;1.15;nan;98989.19;4966934;28;20215;-80
2024/01/16 11:07:43;;;;;;;8.77;5.03;;;;;;;1.09;nan;98986.81;4965793;28;20639;-77
2024/01/16 11:10:09;;;;;;;9.20;4.43;;;;;;;1.07;nan;98996.38;4963774;28;20215;-79
2024/01/16 11:12:37;;;;;;;6.50;4.07;;;;;;;0.97;nan;98988.06;4962666;28;20720;-77
2024/01/16 11:15:07;;;;;;;8.18;5.75;;;;;;;0.96;nan;98972.63;4962856;28;20250;-77
2024/01/16 11:17:37;;;;;;;6.35;4.40;;;;;;;0.93;nan;98975.31;4961321;28;20275;-78
2024/01/16 11:20:09;;;;;;;14.32;4.53;;;;;;;0.96;nan;98967.47;4962644;28;20201;-77
2024/01/16 11:22:39;;;;;;;5.05;3.80;;;;;;;1.01;nan;98966.41;4969446;28;20292;-78
2024/01/16 11:25:14;;;;;;;3.75;3.05;;;;;;;1.04;nan;98963.69;4970218;28;21110;-78
2024/01/16 11:27:42;;;;;;;12.38;5.13;;;;;;;1.03;nan;98953.44;4968903;28;20899;-78
2024/01/16 11:30:10;;;;;;;5.32;4.35;;;;;;;1.03;nan;98954.25;4971569;28;20299;-78